sensor_id;sensor_type;location;lat;lon;timestamp;P1;durP1;ratioP1;P2;durP2;ratioP2
74168;SDS011;62523;53.336;83.690;2023-02-15T00:04:16;34.65;;;12.73;;
74168;SDS011;62523;53.336;83.690;2023-02-15T00:09:19;33.42;;;12.93;;
74168;SDS011;62523;53.336;83.690;2023-02-15T00:14:21;31.10;;;10.85;;
74168;SDS011;62523;53.336;83.690;2023-02-15T00:19:24;27.95;;;14.23;;
74168;SDS011;62523;53.336;83.690;2023-02-15T00:24:25;30.80;;;14.43;;
74168;SDS011;62523;53.336;83.690;2023-02-15T00:29:26;32.80;;;15.53;;
74168;SDS011;62523;53.336;83.690;2023-02-15T00:34:28;32.28;;;13.13;;
74168;SDS011;62523;53.336;83.690;2023-02-15T00:39:29;35.97;;;16.20;;
74168;SDS011;62523;53.336;83.690;2023-02-15T00:44:30;46.95;;;15.75;;
74168;SDS011;62523;53.336;83.690;2023-02-15T00:49:31;37.88;;;14.15;;
74168;SDS011;62523;53.336;83.690;2023-02-15T00:54:32;43.83;;;19.10;;
74168;SDS011;62523;53.336;83.690;2023-02-15T01:04:35;42.05;;;17.52;;
74168;SDS011;62523;53.336;83.690;2023-02-15T01:09:36;48.92;;;20.52;;
74168;SDS011;62523;53.336;83.690;2023-02-15T01:14:38;88.35;;;24.70;;
74168;SDS011;62523;53.336;83.690;2023-02-15T01:19:39;62.38;;;24.17;;
74168;SDS011;62523;53.336;83.690;2023-02-15T01:24:40;53.03;;;23.08;;
74168;SDS011;62523;53.336;83.690;2023-02-15T01:29:41;62.63;;;22.00;;
74168;SDS011;62523;53.336;83.690;2023-02-15T01:34:43;64.80;;;19.98;;
74168;SDS011;62523;53.336;83.690;2023-02-15T01:39:44;42.63;;;18.73;;
74168;SDS011;62523;53.336;83.690;2023-02-15T01:50:15;56.38;;;20.00;;
74168;SDS011;62523;53.336;83.690;2023-02-15T01:55:24;40.03;;;18.67;;
74168;SDS011;62523;53.336;83.690;2023-02-15T02:00:28;64.35;;;24.33;;
74168;SDS011;62523;53.336;83.690;2023-02-15T02:05:29;56.78;;;22.27;;
74168;SDS011;62523;53.336;83.690;2023-02-15T02:10:31;54.77;;;19.43;;
74168;SDS011;62523;53.336;83.690;2023-02-15T02:15:35;50.60;;;20.03;;
74168;SDS011;62523;53.336;83.690;2023-02-15T02:20:56;51.25;;;25.33;;
74168;SDS011;62523;53.336;83.690;2023-02-15T02:32:13;59.67;;;21.95;;
74168;SDS011;62523;53.336;83.690;2023-02-15T02:47:47;63.53;;;26.83;;
74168;SDS011;62523;53.336;83.690;2023-02-15T02:52:54;80.78;;;29.98;;
74168;SDS011;62523;53.336;83.690;2023-02-15T03:03:02;75.05;;;31.30;;
74168;SDS011;62523;53.336;83.690;2023-02-15T03:08:07;64.40;;;26.92;;
74168;SDS011;62523;53.336;83.690;2023-02-15T03:13:10;76.47;;;28.70;;
74168;SDS011;62523;53.336;83.690;2023-02-15T03:18:11;67.85;;;26.60;;
74168;SDS011;62523;53.336;83.690;2023-02-15T03:23:13;63.30;;;27.13;;
74168;SDS011;62523;53.336;83.690;2023-02-15T03:28:20;76.78;;;32.70;;
74168;SDS011;62523;53.336;83.690;2023-02-15T03:33:26;61.40;;;25.50;;
74168;SDS011;62523;53.336;83.690;2023-02-15T03:38:30;85.72;;;28.50;;
74168;SDS011;62523;53.336;83.690;2023-02-15T03:43:59;90.47;;;32.85;;
74168;SDS011;62523;53.336;83.690;2023-02-15T03:54:30;74.35;;;28.13;;
74168;SDS011;62523;53.336;83.690;2023-02-15T03:59:43;80.15;;;26.35;;
74168;SDS011;62523;53.336;83.690;2023-02-15T04:05:04;81.85;;;32.90;;
74168;SDS011;62523;53.336;83.690;2023-02-15T04:10:05;80.20;;;28.53;;
74168;SDS011;62523;53.336;83.690;2023-02-15T04:15:25;92.35;;;34.65;;
74168;SDS011;62523;53.336;83.690;2023-02-15T04:20:45;82.72;;;31.65;;
74168;SDS011;62523;53.336;83.690;2023-02-15T04:26:05;81.10;;;35.97;;
74168;SDS011;62523;53.336;83.690;2023-02-15T04:31:06;93.13;;;38.97;;
74168;SDS011;62523;53.336;83.690;2023-02-15T04:36:07;117.82;;;44.60;;
74168;SDS011;62523;53.336;83.690;2023-02-15T04:41:08;114.75;;;40.08;;
74168;SDS011;62523;53.336;83.690;2023-02-15T04:46:11;108.18;;;37.70;;
74168;SDS011;62523;53.336;83.690;2023-02-15T04:51:13;109.50;;;45.50;;
74168;SDS011;62523;53.336;83.690;2023-02-15T04:56:14;133.25;;;48.53;;
74168;SDS011;62523;53.336;83.690;2023-02-15T05:01:15;73.93;;;27.93;;
74168;SDS011;62523;53.336;83.690;2023-02-15T05:06:16;78.68;;;31.63;;
74168;SDS011;62523;53.336;83.690;2023-02-15T05:11:18;65.82;;;25.73;;
74168;SDS011;62523;53.336;83.690;2023-02-15T05:16:26;63.70;;;24.08;;
74168;SDS011;62523;53.336;83.690;2023-02-15T05:21:28;61.00;;;26.23;;
74168;SDS011;62523;53.336;83.690;2023-02-15T05:26:29;76.28;;;29.33;;
74168;SDS011;62523;53.336;83.690;2023-02-15T05:31:48;62.40;;;27.23;;
74168;SDS011;62523;53.336;83.690;2023-02-15T05:36:49;68.13;;;29.52;;
74168;SDS011;62523;53.336;83.690;2023-02-15T05:41:50;55.80;;;21.23;;
74168;SDS011;62523;53.336;83.690;2023-02-15T05:46:52;45.53;;;22.25;;
74168;SDS011;62523;53.336;83.690;2023-02-15T05:51:55;66.43;;;23.02;;
74168;SDS011;62523;53.336;83.690;2023-02-15T05:56:56;49.03;;;20.80;;
74168;SDS011;62523;53.336;83.690;2023-02-15T06:01:58;70.20;;;24.70;;
74168;SDS011;62523;53.336;83.690;2023-02-15T06:06:59;34.55;;;20.27;;
74168;SDS011;62523;53.336;83.690;2023-02-15T06:12:00;56.97;;;22.92;;
74168;SDS011;62523;53.336;83.690;2023-02-15T06:17:01;75.13;;;23.90;;
74168;SDS011;62523;53.336;83.690;2023-02-15T06:22:02;57.83;;;22.02;;
74168;SDS011;62523;53.336;83.690;2023-02-15T06:27:03;67.63;;;26.43;;
74168;SDS011;62523;53.336;83.690;2023-02-15T06:32:04;68.60;;;26.48;;
74168;SDS011;62523;53.336;83.690;2023-02-15T06:37:06;66.25;;;22.17;;
74168;SDS011;62523;53.336;83.690;2023-02-15T06:42:10;82.88;;;29.98;;
74168;SDS011;62523;53.336;83.690;2023-02-15T06:47:11;77.50;;;29.77;;
74168;SDS011;62523;53.336;83.690;2023-02-15T06:52:12;65.88;;;26.23;;
74168;SDS011;62523;53.336;83.690;2023-02-15T06:57:13;67.95;;;27.65;;
74168;SDS011;62523;53.336;83.690;2023-02-15T07:02:14;63.80;;;24.15;;
74168;SDS011;62523;53.336;83.690;2023-02-15T07:07:16;81.63;;;26.37;;
74168;SDS011;62523;53.336;83.690;2023-02-15T07:12:17;61.15;;;21.85;;
74168;SDS011;62523;53.336;83.690;2023-02-15T07:17:37;45.58;;;19.88;;
74168;SDS011;62523;53.336;83.690;2023-02-15T07:22:38;62.00;;;21.33;;
74168;SDS011;62523;53.336;83.690;2023-02-15T07:27:39;60.95;;;22.45;;
74168;SDS011;62523;53.336;83.690;2023-02-15T07:32:41;42.70;;;17.37;;
74168;SDS011;62523;53.336;83.690;2023-02-15T07:38:02;43.10;;;17.85;;
74168;SDS011;62523;53.336;83.690;2023-02-15T07:43:03;40.47;;;16.15;;
74168;SDS011;62523;53.336;83.690;2023-02-15T07:48:05;58.10;;;20.27;;
74168;SDS011;62523;53.336;83.690;2023-02-15T07:53:06;65.43;;;20.20;;
74168;SDS011;62523;53.336;83.690;2023-02-15T07:58:07;57.30;;;18.38;;
74168;SDS011;62523;53.336;83.690;2023-02-15T08:03:08;60.45;;;24.48;;
74168;SDS011;62523;53.336;83.690;2023-02-15T08:08:15;42.42;;;17.13;;
74168;SDS011;62523;53.336;83.690;2023-02-15T08:13:31;42.63;;;19.45;;
74168;SDS011;62523;53.336;83.690;2023-02-15T08:18:32;51.33;;;19.17;;
74168;SDS011;62523;53.336;83.690;2023-02-15T08:23:34;51.17;;;20.17;;
74168;SDS011;62523;53.336;83.690;2023-02-15T08:28:35;39.42;;;15.75;;
74168;SDS011;62523;53.336;83.690;2023-02-15T08:33:37;51.45;;;18.95;;
74168;SDS011;62523;53.336;83.690;2023-02-15T08:38:40;45.63;;;18.25;;
74168;SDS011;62523;53.336;83.690;2023-02-15T08:43:42;50.75;;;16.27;;
74168;SDS011;62523;53.336;83.690;2023-02-15T08:48:44;40.80;;;17.52;;
74168;SDS011;62523;53.336;83.690;2023-02-15T08:53:47;36.92;;;14.77;;
74168;SDS011;62523;53.336;83.690;2023-02-15T08:58:49;34.25;;;15.48;;
74168;SDS011;62523;53.336;83.690;2023-02-15T09:03:54;37.97;;;17.47;;
74168;SDS011;62523;53.336;83.690;2023-02-15T09:08:56;48.67;;;16.73;;
74168;SDS011;62523;53.336;83.690;2023-02-15T09:13:59;48.20;;;17.63;;
74168;SDS011;62523;53.336;83.690;2023-02-15T09:19:01;53.70;;;19.15;;
74168;SDS011;62523;53.336;83.690;2023-02-15T09:24:06;62.58;;;19.05;;
74168;SDS011;62523;53.336;83.690;2023-02-15T09:29:12;50.28;;;18.67;;
74168;SDS011;62523;53.336;83.690;2023-02-15T09:34:15;44.10;;;19.02;;
74168;SDS011;62523;53.336;83.690;2023-02-15T09:39:22;30.33;;;16.15;;
74168;SDS011;62523;53.336;83.690;2023-02-15T10:06:05;39.95;;;17.10;;
74168;SDS011;62523;53.336;83.690;2023-02-15T10:11:17;51.00;;;21.77;;
74168;SDS011;62523;53.336;83.690;2023-02-15T10:16:48;44.70;;;15.55;;
74168;SDS011;62523;53.336;83.690;2023-02-15T10:27:27;35.97;;;15.77;;
74168;SDS011;62523;53.336;83.690;2023-02-15T10:32:36;37.90;;;17.35;;
74168;SDS011;62523;53.336;83.690;2023-02-15T10:54:30;54.15;;;22.00;;
74168;SDS011;62523;53.336;83.690;2023-02-15T10:59:50;58.10;;;18.77;;
74168;SDS011;62523;53.336;83.690;2023-02-15T11:15:51;53.87;;;20.27;;
74168;SDS011;62523;53.336;83.690;2023-02-15T11:21:01;74.15;;;22.70;;
74168;SDS011;62523;53.336;83.690;2023-02-15T11:26:10;48.47;;;20.00;;
74168;SDS011;62523;53.336;83.690;2023-02-15T11:31:20;44.15;;;19.13;;
74168;SDS011;62523;53.336;83.690;2023-02-15T11:36:27;53.80;;;21.38;;
74168;SDS011;62523;53.336;83.690;2023-02-15T11:41:34;61.70;;;21.58;;
74168;SDS011;62523;53.336;83.690;2023-02-15T11:46:40;57.38;;;21.48;;
74168;SDS011;62523;53.336;83.690;2023-02-15T11:51:41;49.57;;;22.73;;
74168;SDS011;62523;53.336;83.690;2023-02-15T11:56:43;48.67;;;17.63;;
74168;SDS011;62523;53.336;83.690;2023-02-15T12:01:45;66.13;;;23.83;;
74168;SDS011;62523;53.336;83.690;2023-02-15T12:06:58;63.40;;;28.67;;
74168;SDS011;62523;53.336;83.690;2023-02-15T12:17:38;66.95;;;23.23;;
74168;SDS011;62523;53.336;83.690;2023-02-15T12:28:26;55.65;;;23.98;;
74168;SDS011;62523;53.336;83.690;2023-02-15T12:33:43;65.80;;;29.52;;
74168;SDS011;62523;53.336;83.690;2023-02-15T12:39:09;58.25;;;26.42;;
74168;SDS011;62523;53.336;83.690;2023-02-15T12:44:21;86.90;;;31.75;;
74168;SDS011;62523;53.336;83.690;2023-02-15T12:49:27;72.53;;;25.08;;
74168;SDS011;62523;53.336;83.690;2023-02-15T12:54:32;76.97;;;33.33;;
74168;SDS011;62523;53.336;83.690;2023-02-15T12:59:35;67.85;;;30.00;;
74168;SDS011;62523;53.336;83.690;2023-02-15T13:04:54;89.22;;;30.02;;
74168;SDS011;62523;53.336;83.690;2023-02-15T13:10:03;92.93;;;34.03;;
74168;SDS011;62523;53.336;83.690;2023-02-15T13:15:26;97.80;;;37.83;;
74168;SDS011;62523;53.336;83.690;2023-02-15T13:20:32;93.35;;;35.13;;
74168;SDS011;62523;53.336;83.690;2023-02-15T13:31:18;61.78;;;27.00;;
74168;SDS011;62523;53.336;83.690;2023-02-15T13:36:39;76.88;;;22.88;;
74168;SDS011;62523;53.336;83.690;2023-02-15T13:52:39;92.22;;;26.75;;
74168;SDS011;62523;53.336;83.690;2023-02-15T14:18:50;55.88;;;24.92;;
74168;SDS011;62523;53.336;83.690;2023-02-15T14:24:04;57.45;;;23.52;;
74168;SDS011;62523;53.336;83.690;2023-02-15T14:29:25;67.18;;;25.73;;
74168;SDS011;62523;53.336;83.690;2023-02-15T14:39:57;62.22;;;24.08;;
74168;SDS011;62523;53.336;83.690;2023-02-15T14:45:28;57.10;;;25.55;;
74168;SDS011;62523;53.336;83.690;2023-02-15T14:50:44;75.85;;;25.60;;
74168;SDS011;62523;53.336;83.690;2023-02-15T14:55:47;58.80;;;22.05;;
74168;SDS011;62523;53.336;83.690;2023-02-15T15:00:48;50.38;;;22.00;;
74168;SDS011;62523;53.336;83.690;2023-02-15T15:05:52;71.82;;;22.98;;
74168;SDS011;62523;53.336;83.690;2023-02-15T15:10:56;52.33;;;21.63;;
74168;SDS011;62523;53.336;83.690;2023-02-15T15:26:46;63.47;;;26.23;;
74168;SDS011;62523;53.336;83.690;2023-02-15T15:31:51;67.30;;;22.73;;
74168;SDS011;62523;53.336;83.690;2023-02-15T15:53:19;53.42;;;20.50;;
74168;SDS011;62523;53.336;83.690;2023-02-15T15:58:23;55.63;;;19.48;;
74168;SDS011;62523;53.336;83.690;2023-02-15T16:03:26;50.58;;;20.23;;
74168;SDS011;62523;53.336;83.690;2023-02-15T16:08:30;44.67;;;20.00;;
74168;SDS011;62523;53.336;83.690;2023-02-15T16:13:31;55.47;;;20.67;;
74168;SDS011;62523;53.336;83.690;2023-02-15T16:18:34;58.83;;;21.58;;
74168;SDS011;62523;53.336;83.690;2023-02-15T16:23:48;53.72;;;16.58;;
74168;SDS011;62523;53.336;83.690;2023-02-15T16:29:00;50.38;;;20.30;;
74168;SDS011;62523;53.336;83.690;2023-02-15T16:34:20;60.30;;;20.90;;
74168;SDS011;62523;53.336;83.690;2023-02-15T16:39:42;51.33;;;19.88;;
74168;SDS011;62523;53.336;83.690;2023-02-15T16:44:45;40.35;;;18.92;;
74168;SDS011;62523;53.336;83.690;2023-02-15T16:49:52;59.15;;;21.10;;
74168;SDS011;62523;53.336;83.690;2023-02-15T16:55:00;65.55;;;23.77;;
74168;SDS011;62523;53.336;83.690;2023-02-15T17:00:05;56.20;;;20.13;;
74168;SDS011;62523;53.336;83.690;2023-02-15T17:05:16;36.85;;;17.63;;
74168;SDS011;62523;53.336;83.690;2023-02-15T17:10:27;43.58;;;17.65;;
74168;SDS011;62523;53.336;83.690;2023-02-15T17:15:35;42.40;;;17.07;;
74168;SDS011;62523;53.336;83.690;2023-02-15T17:20:38;51.60;;;18.35;;
74168;SDS011;62523;53.336;83.690;2023-02-15T17:25:44;50.95;;;16.63;;
74168;SDS011;62523;53.336;83.690;2023-02-15T17:30:46;54.70;;;17.83;;
74168;SDS011;62523;53.336;83.690;2023-02-15T17:41:12;46.97;;;18.30;;
74168;SDS011;62523;53.336;83.690;2023-02-15T17:46:13;38.28;;;16.10;;
74168;SDS011;62523;53.336;83.690;2023-02-15T17:51:16;51.83;;;19.25;;
74168;SDS011;62523;53.336;83.690;2023-02-15T17:56:19;41.25;;;15.45;;
74168;SDS011;62523;53.336;83.690;2023-02-15T18:01:20;32.78;;;15.73;;
74168;SDS011;62523;53.336;83.690;2023-02-15T18:06:41;40.28;;;16.80;;
74168;SDS011;62523;53.336;83.690;2023-02-15T18:12:14;37.13;;;13.32;;
74168;SDS011;62523;53.336;83.690;2023-02-15T18:17:32;32.72;;;14.85;;
74168;SDS011;62523;53.336;83.690;2023-02-15T18:22:35;38.85;;;15.70;;
74168;SDS011;62523;53.336;83.690;2023-02-15T18:27:36;42.22;;;15.00;;
74168;SDS011;62523;53.336;83.690;2023-02-15T18:32:37;39.40;;;17.92;;
74168;SDS011;62523;53.336;83.690;2023-02-15T18:37:40;30.27;;;14.38;;
74168;SDS011;62523;53.336;83.690;2023-02-15T18:42:41;36.50;;;12.00;;
74168;SDS011;62523;53.336;83.690;2023-02-15T18:47:47;27.13;;;14.13;;
74168;SDS011;62523;53.336;83.690;2023-02-15T18:52:48;40.70;;;15.65;;
74168;SDS011;62523;53.336;83.690;2023-02-15T18:57:51;26.35;;;10.38;;
74168;SDS011;62523;53.336;83.690;2023-02-15T19:02:55;43.70;;;16.75;;
74168;SDS011;62523;53.336;83.690;2023-02-15T19:07:57;29.50;;;14.18;;
74168;SDS011;62523;53.336;83.690;2023-02-15T19:12:59;33.00;;;14.43;;
74168;SDS011;62523;53.336;83.690;2023-02-15T19:18:00;23.08;;;13.75;;
74168;SDS011;62523;53.336;83.690;2023-02-15T19:23:01;37.55;;;13.25;;
74168;SDS011;62523;53.336;83.690;2023-02-15T19:28:05;36.25;;;18.73;;
74168;SDS011;62523;53.336;83.690;2023-02-15T19:33:14;33.70;;;16.20;;
74168;SDS011;62523;53.336;83.690;2023-02-15T19:38:18;38.50;;;17.13;;
74168;SDS011;62523;53.336;83.690;2023-02-15T19:43:23;43.45;;;15.88;;
74168;SDS011;62523;53.336;83.690;2023-02-15T19:48:24;23.77;;;11.65;;
74168;SDS011;62523;53.336;83.690;2023-02-15T19:53:25;40.53;;;16.90;;
74168;SDS011;62523;53.336;83.690;2023-02-15T19:58:28;32.50;;;16.40;;
74168;SDS011;62523;53.336;83.690;2023-02-15T20:03:29;44.03;;;15.87;;
74168;SDS011;62523;53.336;83.690;2023-02-15T20:08:30;52.08;;;20.70;;
74168;SDS011;62523;53.336;83.690;2023-02-15T20:13:32;30.42;;;18.08;;
74168;SDS011;62523;53.336;83.690;2023-02-15T20:18:33;60.30;;;23.38;;
74168;SDS011;62523;53.336;83.690;2023-02-15T20:23:34;53.65;;;21.95;;
74168;SDS011;62523;53.336;83.690;2023-02-15T20:28:36;64.47;;;24.97;;
74168;SDS011;62523;53.336;83.690;2023-02-15T20:33:37;51.17;;;19.90;;
74168;SDS011;62523;53.336;83.690;2023-02-15T20:38:38;68.40;;;22.45;;
74168;SDS011;62523;53.336;83.690;2023-02-15T20:43:39;61.72;;;23.65;;
74168;SDS011;62523;53.336;83.690;2023-02-15T20:48:41;50.13;;;22.73;;
74168;SDS011;62523;53.336;83.690;2023-02-15T20:53:42;58.92;;;23.55;;
74168;SDS011;62523;53.336;83.690;2023-02-15T20:58:43;53.10;;;21.55;;
74168;SDS011;62523;53.336;83.690;2023-02-15T21:03:44;48.85;;;25.27;;
74168;SDS011;62523;53.336;83.690;2023-02-15T21:08:46;68.22;;;23.77;;
74168;SDS011;62523;53.336;83.690;2023-02-15T21:13:48;62.53;;;23.80;;
74168;SDS011;62523;53.336;83.690;2023-02-15T21:18:50;58.80;;;26.25;;
74168;SDS011;62523;53.336;83.690;2023-02-15T21:23:51;64.80;;;24.85;;
74168;SDS011;62523;53.336;83.690;2023-02-15T21:28:53;73.53;;;28.48;;
74168;SDS011;62523;53.336;83.690;2023-02-15T21:33:56;61.90;;;26.90;;
74168;SDS011;62523;53.336;83.690;2023-02-15T21:38:57;65.15;;;29.58;;
74168;SDS011;62523;53.336;83.690;2023-02-15T21:43:58;83.60;;;27.42;;
74168;SDS011;62523;53.336;83.690;2023-02-15T21:49:17;57.42;;;25.02;;
74168;SDS011;62523;53.336;83.690;2023-02-15T21:54:19;64.15;;;28.30;;
74168;SDS011;62523;53.336;83.690;2023-02-15T21:59:20;68.60;;;30.17;;
74168;SDS011;62523;53.336;83.690;2023-02-15T22:04:23;88.22;;;31.08;;
74168;SDS011;62523;53.336;83.690;2023-02-15T22:09:26;63.80;;;28.98;;
74168;SDS011;62523;53.336;83.690;2023-02-15T22:14:35;68.82;;;28.98;;
74168;SDS011;62523;53.336;83.690;2023-02-15T22:19:40;62.17;;;27.38;;
74168;SDS011;62523;53.336;83.690;2023-02-15T22:24:42;56.50;;;24.13;;
74168;SDS011;62523;53.336;83.690;2023-02-15T22:29:44;52.47;;;24.05;;
74168;SDS011;62523;53.336;83.690;2023-02-15T22:34:45;60.13;;;24.70;;
74168;SDS011;62523;53.336;83.690;2023-02-15T22:39:47;65.78;;;26.48;;
74168;SDS011;62523;53.336;83.690;2023-02-15T22:44:48;76.70;;;25.27;;
74168;SDS011;62523;53.336;83.690;2023-02-15T22:49:50;67.95;;;23.30;;
74168;SDS011;62523;53.336;83.690;2023-02-15T22:54:51;58.22;;;24.40;;
74168;SDS011;62523;53.336;83.690;2023-02-15T22:59:52;59.10;;;26.60;;
74168;SDS011;62523;53.336;83.690;2023-02-15T23:04:53;64.90;;;26.13;;
74168;SDS011;62523;53.336;83.690;2023-02-15T23:09:54;55.25;;;23.35;;
74168;SDS011;62523;53.336;83.690;2023-02-15T23:14:55;74.38;;;23.73;;
74168;SDS011;62523;53.336;83.690;2023-02-15T23:19:57;56.80;;;25.77;;
74168;SDS011;62523;53.336;83.690;2023-02-15T23:24:58;71.47;;;27.75;;
74168;SDS011;62523;53.336;83.690;2023-02-15T23:30:00;50.60;;;23.02;;
74168;SDS011;62523;53.336;83.690;2023-02-15T23:35:11;64.90;;;28.10;;
74168;SDS011;62523;53.336;83.690;2023-02-15T23:40:18;55.75;;;25.98;;
74168;SDS011;62523;53.336;83.690;2023-02-15T23:45:39;43.63;;;18.58;;
74168;SDS011;62523;53.336;83.690;2023-02-15T23:50:40;65.82;;;25.45;;
74168;SDS011;62523;53.336;83.690;2023-02-15T23:55:42;78.45;;;30.58;;
